sensor_id;sensor_type;location;lat;lon;timestamp;P1;durP1;ratioP1;P2;durP2;ratioP2
17265;SDS011;8749;47.076;15.412;2022-08-19T00:00:06;8.75;;;3.20;;
17265;SDS011;8749;47.076;15.412;2022-08-19T00:02:35;5.93;;;3.20;;
17265;SDS011;8749;47.076;15.412;2022-08-19T00:05:03;9.25;;;3.17;;
17265;SDS011;8749;47.076;15.412;2022-08-19T00:07:30;5.30;;;3.15;;
17265;SDS011;8749;47.076;15.412;2022-08-19T00:09:57;10.75;;;3.42;;
17265;SDS011;8749;47.076;15.412;2022-08-19T00:12:24;8.45;;;3.58;;
17265;SDS011;8749;47.076;15.412;2022-08-19T00:14:53;9.88;;;3.40;;
17265;SDS011;8749;47.076;15.412;2022-08-19T00:17:20;9.70;;;3.80;;
17265;SDS011;8749;47.076;15.412;2022-08-19T00:19:47;8.02;;;3.53;;
17265;SDS011;8749;47.076;15.412;2022-08-19T00:22:14;6.97;;;3.88;;
17265;SDS011;8749;47.076;15.412;2022-08-19T00:24:42;9.80;;;3.67;;
17265;SDS011;8749;47.076;15.412;2022-08-19T00:27:10;11.75;;;3.92;;
17265;SDS011;8749;47.076;15.412;2022-08-19T00:29:37;11.48;;;4.10;;
17265;SDS011;8749;47.076;15.412;2022-08-19T00:32:05;8.32;;;3.88;;
17265;SDS011;8749;47.076;15.412;2022-08-19T00:34:32;5.55;;;3.38;;
17265;SDS011;8749;47.076;15.412;2022-08-19T00:37:00;8.07;;;4.07;;
17265;SDS011;8749;47.076;15.412;2022-08-19T00:39:27;5.88;;;3.60;;
17265;SDS011;8749;47.076;15.412;2022-08-19T00:41:55;8.95;;;4.13;;
17265;SDS011;8749;47.076;15.412;2022-08-19T00:44:23;8.13;;;3.92;;
17265;SDS011;8749;47.076;15.412;2022-08-19T00:46:52;11.90;;;3.63;;
17265;SDS011;8749;47.076;15.412;2022-08-19T00:49:23;7.20;;;3.25;;
17265;SDS011;8749;47.076;15.412;2022-08-19T00:51:55;9.10;;;3.50;;
17265;SDS011;8749;47.076;15.412;2022-08-19T00:54:25;7.18;;;3.25;;
17265;SDS011;8749;47.076;15.412;2022-08-19T00:56:53;10.55;;;3.38;;
17265;SDS011;8749;47.076;15.412;2022-08-19T00:59:20;8.02;;;3.00;;
17265;SDS011;8749;47.076;15.412;2022-08-19T01:01:47;5.30;;;3.05;;
17265;SDS011;8749;47.076;15.412;2022-08-19T01:04:14;7.40;;;3.10;;
17265;SDS011;8749;47.076;15.412;2022-08-19T01:06:42;6.53;;;3.10;;
17265;SDS011;8749;47.076;15.412;2022-08-19T01:09:09;7.75;;;2.95;;
17265;SDS011;8749;47.076;15.412;2022-08-19T01:11:38;8.52;;;3.55;;
17265;SDS011;8749;47.076;15.412;2022-08-19T01:14:09;8.50;;;3.25;;
17265;SDS011;8749;47.076;15.412;2022-08-19T01:16:37;8.18;;;3.42;;
17265;SDS011;8749;47.076;15.412;2022-08-19T01:19:09;8.20;;;3.40;;
17265;SDS011;8749;47.076;15.412;2022-08-19T01:21:43;8.30;;;3.28;;
17265;SDS011;8749;47.076;15.412;2022-08-19T01:24:17;7.68;;;3.15;;
17265;SDS011;8749;47.076;15.412;2022-08-19T01:26:46;6.50;;;2.95;;
17265;SDS011;8749;47.076;15.412;2022-08-19T01:29:13;5.65;;;3.13;;
17265;SDS011;8749;47.076;15.412;2022-08-19T01:31:40;7.85;;;3.08;;
17265;SDS011;8749;47.076;15.412;2022-08-19T01:34:08;7.05;;;4.00;;
17265;SDS011;8749;47.076;15.412;2022-08-19T01:36:36;7.53;;;3.53;;
17265;SDS011;8749;47.076;15.412;2022-08-19T01:39:07;9.77;;;3.75;;
17265;SDS011;8749;47.076;15.412;2022-08-19T01:41:39;8.73;;;4.03;;
17265;SDS011;8749;47.076;15.412;2022-08-19T01:44:06;8.55;;;3.92;;
17265;SDS011;8749;47.076;15.412;2022-08-19T01:46:34;10.50;;;3.92;;
17265;SDS011;8749;47.076;15.412;2022-08-19T01:49:02;9.68;;;3.85;;
17265;SDS011;8749;47.076;15.412;2022-08-19T01:51:31;5.60;;;3.58;;
17265;SDS011;8749;47.076;15.412;2022-08-19T01:53:58;7.40;;;4.07;;
17265;SDS011;8749;47.076;15.412;2022-08-19T01:56:25;8.40;;;3.85;;
17265;SDS011;8749;47.076;15.412;2022-08-19T01:58:54;6.85;;;4.05;;
17265;SDS011;8749;47.076;15.412;2022-08-19T02:01:24;7.78;;;4.20;;
17265;SDS011;8749;47.076;15.412;2022-08-19T02:03:51;6.05;;;3.95;;
17265;SDS011;8749;47.076;15.412;2022-08-19T02:06:19;7.70;;;4.43;;
17265;SDS011;8749;47.076;15.412;2022-08-19T02:08:45;6.32;;;3.78;;
17265;SDS011;8749;47.076;15.412;2022-08-19T02:11:18;8.75;;;3.60;;
17265;SDS011;8749;47.076;15.412;2022-08-19T02:13:46;8.23;;;3.78;;
17265;SDS011;8749;47.076;15.412;2022-08-19T02:16:15;9.00;;;3.33;;
17265;SDS011;8749;47.076;15.412;2022-08-19T02:18:43;6.40;;;3.10;;
17265;SDS011;8749;47.076;15.412;2022-08-19T02:21:10;6.32;;;3.50;;
17265;SDS011;8749;47.076;15.412;2022-08-19T02:23:37;7.78;;;3.33;;
17265;SDS011;8749;47.076;15.412;2022-08-19T02:26:04;8.38;;;3.42;;
17265;SDS011;8749;47.076;15.412;2022-08-19T02:28:31;8.48;;;3.90;;
17265;SDS011;8749;47.076;15.412;2022-08-19T02:30:58;9.85;;;3.92;;
17265;SDS011;8749;47.076;15.412;2022-08-19T02:33:28;8.18;;;4.15;;
17265;SDS011;8749;47.076;15.412;2022-08-19T02:35:55;7.45;;;4.07;;
17265;SDS011;8749;47.076;15.412;2022-08-19T02:38:22;9.80;;;3.58;;
17265;SDS011;8749;47.076;15.412;2022-08-19T02:40:52;7.20;;;3.58;;
17265;SDS011;8749;47.076;15.412;2022-08-19T02:43:21;9.18;;;3.95;;
17265;SDS011;8749;47.076;15.412;2022-08-19T02:45:48;7.90;;;3.38;;
17265;SDS011;8749;47.076;15.412;2022-08-19T02:48:16;7.30;;;3.22;;
17265;SDS011;8749;47.076;15.412;2022-08-19T02:50:46;8.75;;;3.83;;
17265;SDS011;8749;47.076;15.412;2022-08-19T02:53:16;7.47;;;3.38;;
17265;SDS011;8749;47.076;15.412;2022-08-19T02:55:43;9.80;;;3.55;;
17265;SDS011;8749;47.076;15.412;2022-08-19T02:58:11;5.45;;;3.50;;
17265;SDS011;8749;47.076;15.412;2022-08-19T03:00:45;7.15;;;3.50;;
17265;SDS011;8749;47.076;15.412;2022-08-19T03:03:14;6.72;;;2.95;;
17265;SDS011;8749;47.076;15.412;2022-08-19T03:05:41;9.35;;;3.50;;
17265;SDS011;8749;47.076;15.412;2022-08-19T03:08:10;7.82;;;3.60;;
17265;SDS011;8749;47.076;15.412;2022-08-19T03:10:40;8.45;;;3.60;;
17265;SDS011;8749;47.076;15.412;2022-08-19T03:13:10;12.13;;;3.53;;
17265;SDS011;8749;47.076;15.412;2022-08-19T03:15:41;7.75;;;3.58;;
17265;SDS011;8749;47.076;15.412;2022-08-19T03:18:09;11.45;;;3.75;;
17265;SDS011;8749;47.076;15.412;2022-08-19T03:20:41;9.10;;;3.38;;
17265;SDS011;8749;47.076;15.412;2022-08-19T03:23:10;8.20;;;3.78;;
17265;SDS011;8749;47.076;15.412;2022-08-19T03:25:38;8.70;;;3.38;;
17265;SDS011;8749;47.076;15.412;2022-08-19T03:28:08;10.82;;;3.70;;
17265;SDS011;8749;47.076;15.412;2022-08-19T03:30:36;26.88;;;15.63;;
17265;SDS011;8749;47.076;15.412;2022-08-19T03:33:04;19.30;;;10.15;;
17265;SDS011;8749;47.076;15.412;2022-08-19T03:35:32;9.85;;;4.30;;
17265;SDS011;8749;47.076;15.412;2022-08-19T03:38:01;6.55;;;3.70;;
17265;SDS011;8749;47.076;15.412;2022-08-19T03:40:30;9.57;;;3.78;;
17265;SDS011;8749;47.076;15.412;2022-08-19T03:42:57;8.05;;;3.70;;
17265;SDS011;8749;47.076;15.412;2022-08-19T03:45:23;8.52;;;3.70;;
17265;SDS011;8749;47.076;15.412;2022-08-19T03:47:50;7.97;;;3.38;;
17265;SDS011;8749;47.076;15.412;2022-08-19T03:50:17;9.90;;;3.90;;
17265;SDS011;8749;47.076;15.412;2022-08-19T03:52:47;10.57;;;3.90;;
17265;SDS011;8749;47.076;15.412;2022-08-19T03:55:16;10.27;;;4.00;;
17265;SDS011;8749;47.076;15.412;2022-08-19T03:57:44;6.32;;;3.38;;
17265;SDS011;8749;47.076;15.412;2022-08-19T04:00:14;10.00;;;3.97;;
17265;SDS011;8749;47.076;15.412;2022-08-19T04:02:41;10.48;;;4.25;;
17265;SDS011;8749;47.076;15.412;2022-08-19T04:05:08;7.35;;;3.85;;
17265;SDS011;8749;47.076;15.412;2022-08-19T04:07:36;6.00;;;3.72;;
17265;SDS011;8749;47.076;15.412;2022-08-19T04:10:03;8.02;;;3.70;;
17265;SDS011;8749;47.076;15.412;2022-08-19T04:12:31;6.30;;;3.92;;
17265;SDS011;8749;47.076;15.412;2022-08-19T04:14:59;7.53;;;3.70;;
17265;SDS011;8749;47.076;15.412;2022-08-19T04:17:26;9.32;;;4.07;;
17265;SDS011;8749;47.076;15.412;2022-08-19T04:19:53;9.10;;;3.97;;
17265;SDS011;8749;47.076;15.412;2022-08-19T04:22:20;6.75;;;4.35;;
17265;SDS011;8749;47.076;15.412;2022-08-19T04:24:47;8.77;;;4.65;;
17265;SDS011;8749;47.076;15.412;2022-08-19T04:27:15;7.30;;;4.45;;
17265;SDS011;8749;47.076;15.412;2022-08-19T04:29:42;8.90;;;4.13;;
17265;SDS011;8749;47.076;15.412;2022-08-19T04:32:10;7.93;;;3.60;;
17265;SDS011;8749;47.076;15.412;2022-08-19T04:34:40;6.10;;;3.80;;
17265;SDS011;8749;47.076;15.412;2022-08-19T04:37:07;6.82;;;4.30;;
17265;SDS011;8749;47.076;15.412;2022-08-19T04:39:36;8.55;;;4.25;;
17265;SDS011;8749;47.076;15.412;2022-08-19T04:42:21;10.77;;;4.57;;
17265;SDS011;8749;47.076;15.412;2022-08-19T04:45:08;44.40;;;11.75;;
17265;SDS011;8749;47.076;15.412;2022-08-19T04:47:38;26.50;;;8.27;;
17265;SDS011;8749;47.076;15.412;2022-08-19T04:50:07;8.38;;;4.97;;
17265;SDS011;8749;47.076;15.412;2022-08-19T04:52:34;24.60;;;8.05;;
17265;SDS011;8749;47.076;15.412;2022-08-19T04:55:02;17.02;;;5.82;;
17265;SDS011;8749;47.076;15.412;2022-08-19T04:57:31;8.60;;;4.40;;
17265;SDS011;8749;47.076;15.412;2022-08-19T04:59:58;8.18;;;4.03;;
17265;SDS011;8749;47.076;15.412;2022-08-19T05:02:25;8.02;;;3.85;;
17265;SDS011;8749;47.076;15.412;2022-08-19T05:04:57;7.57;;;3.40;;
17265;SDS011;8749;47.076;15.412;2022-08-19T05:07:26;6.85;;;3.88;;
17265;SDS011;8749;47.076;15.412;2022-08-19T05:09:53;8.05;;;3.72;;
17265;SDS011;8749;47.076;15.412;2022-08-19T05:12:22;6.97;;;4.05;;
17265;SDS011;8749;47.076;15.412;2022-08-19T05:14:51;8.77;;;3.47;;
17265;SDS011;8749;47.076;15.412;2022-08-19T05:17:19;8.20;;;3.75;;
17265;SDS011;8749;47.076;15.412;2022-08-19T05:19:47;7.18;;;3.20;;
17265;SDS011;8749;47.076;15.412;2022-08-19T05:22:34;9.40;;;4.13;;
17265;SDS011;8749;47.076;15.412;2022-08-19T05:25:04;7.20;;;4.35;;
17265;SDS011;8749;47.076;15.412;2022-08-19T05:27:33;3.50;;;2.92;;
17265;SDS011;8749;47.076;15.412;2022-08-19T05:30:00;6.45;;;3.00;;
17265;SDS011;8749;47.076;15.412;2022-08-19T05:32:27;7.30;;;3.47;;
17265;SDS011;8749;47.076;15.412;2022-08-19T05:34:54;4.95;;;3.55;;
17265;SDS011;8749;47.076;15.412;2022-08-19T05:37:21;8.00;;;3.40;;
17265;SDS011;8749;47.076;15.412;2022-08-19T05:40:07;8.27;;;3.10;;
17265;SDS011;8749;47.076;15.412;2022-08-19T05:42:35;4.93;;;2.80;;
17265;SDS011;8749;47.076;15.412;2022-08-19T05:45:02;5.55;;;2.72;;
17265;SDS011;8749;47.076;15.412;2022-08-19T05:47:30;5.05;;;3.00;;
17265;SDS011;8749;47.076;15.412;2022-08-19T05:49:57;4.25;;;2.95;;
17265;SDS011;8749;47.076;15.412;2022-08-19T05:52:24;8.63;;;3.40;;
17265;SDS011;8749;47.076;15.412;2022-08-19T05:54:53;3.35;;;2.70;;
17265;SDS011;8749;47.076;15.412;2022-08-19T05:57:23;7.25;;;3.00;;
17265;SDS011;8749;47.076;15.412;2022-08-19T05:59:50;7.15;;;3.40;;
17265;SDS011;8749;47.076;15.412;2022-08-19T06:02:18;8.85;;;3.70;;
17265;SDS011;8749;47.076;15.412;2022-08-19T06:04:45;5.65;;;3.28;;
17265;SDS011;8749;47.076;15.412;2022-08-19T06:07:12;9.88;;;3.58;;
17265;SDS011;8749;47.076;15.412;2022-08-19T06:09:40;6.45;;;3.42;;
17265;SDS011;8749;47.076;15.412;2022-08-19T06:12:09;6.28;;;3.30;;
17265;SDS011;8749;47.076;15.412;2022-08-19T06:14:35;7.35;;;3.30;;
17265;SDS011;8749;47.076;15.412;2022-08-19T06:17:03;7.53;;;3.03;;
17265;SDS011;8749;47.076;15.412;2022-08-19T06:19:30;5.10;;;3.15;;
17265;SDS011;8749;47.076;15.412;2022-08-19T06:21:58;12.38;;;3.55;;
17265;SDS011;8749;47.076;15.412;2022-08-19T06:24:26;6.95;;;3.50;;
17265;SDS011;8749;47.076;15.412;2022-08-19T06:26:55;6.93;;;3.28;;
17265;SDS011;8749;47.076;15.412;2022-08-19T06:29:24;9.93;;;3.20;;
17265;SDS011;8749;47.076;15.412;2022-08-19T06:31:53;5.93;;;3.10;;
17265;SDS011;8749;47.076;15.412;2022-08-19T06:34:22;6.20;;;3.22;;
17265;SDS011;8749;47.076;15.412;2022-08-19T06:36:51;11.18;;;3.58;;
17265;SDS011;8749;47.076;15.412;2022-08-19T06:39:19;4.60;;;2.75;;
17265;SDS011;8749;47.076;15.412;2022-08-19T06:41:49;4.22;;;2.90;;
17265;SDS011;8749;47.076;15.412;2022-08-19T06:44:19;3.10;;;2.80;;
17265;SDS011;8749;47.076;15.412;2022-08-19T06:46:49;2.45;;;2.30;;
17265;SDS011;8749;47.076;15.412;2022-08-19T06:49:16;3.50;;;2.40;;
17265;SDS011;8749;47.076;15.412;2022-08-19T06:51:44;3.38;;;2.45;;
17265;SDS011;8749;47.076;15.412;2022-08-19T06:54:13;4.55;;;3.70;;
17265;SDS011;8749;47.076;15.412;2022-08-19T06:56:40;5.22;;;3.80;;
17265;SDS011;8749;47.076;15.412;2022-08-19T06:59:09;9.25;;;3.83;;
17265;SDS011;8749;47.076;15.412;2022-08-19T07:01:37;5.20;;;3.47;;
17265;SDS011;8749;47.076;15.412;2022-08-19T07:04:07;7.32;;;3.83;;
17265;SDS011;8749;47.076;15.412;2022-08-19T07:06:35;9.07;;;3.80;;
17265;SDS011;8749;47.076;15.412;2022-08-19T07:09:03;3.20;;;2.90;;
17265;SDS011;8749;47.076;15.412;2022-08-19T07:11:31;3.65;;;2.90;;
17265;SDS011;8749;47.076;15.412;2022-08-19T07:13:58;4.47;;;2.97;;
17265;SDS011;8749;47.076;15.412;2022-08-19T07:16:25;3.92;;;2.92;;
17265;SDS011;8749;47.076;15.412;2022-08-19T07:18:53;3.15;;;2.75;;
17265;SDS011;8749;47.076;15.412;2022-08-19T07:21:22;5.05;;;2.80;;
17265;SDS011;8749;47.076;15.412;2022-08-19T07:23:53;5.55;;;2.40;;
17265;SDS011;8749;47.076;15.412;2022-08-19T07:26:22;4.63;;;2.67;;
17265;SDS011;8749;47.076;15.412;2022-08-19T07:28:50;3.80;;;2.53;;
17265;SDS011;8749;47.076;15.412;2022-08-19T07:31:19;3.83;;;2.60;;
17265;SDS011;8749;47.076;15.412;2022-08-19T07:33:49;4.47;;;2.25;;
17265;SDS011;8749;47.076;15.412;2022-08-19T07:36:18;4.22;;;2.20;;
17265;SDS011;8749;47.076;15.412;2022-08-19T07:38:48;3.97;;;2.00;;
17265;SDS011;8749;47.076;15.412;2022-08-19T07:41:17;2.60;;;2.40;;
17265;SDS011;8749;47.076;15.412;2022-08-19T07:43:45;1.77;;;1.45;;
17265;SDS011;8749;47.076;15.412;2022-08-19T07:46:13;1.52;;;1.48;;
17265;SDS011;8749;47.076;15.412;2022-08-19T07:48:40;2.55;;;1.40;;
17265;SDS011;8749;47.076;15.412;2022-08-19T07:51:09;2.85;;;1.40;;
17265;SDS011;8749;47.076;15.412;2022-08-19T07:53:37;1.50;;;1.40;;
17265;SDS011;8749;47.076;15.412;2022-08-19T07:56:06;1.58;;;1.40;;
17265;SDS011;8749;47.076;15.412;2022-08-19T07:58:33;2.22;;;1.80;;
17265;SDS011;8749;47.076;15.412;2022-08-19T08:01:04;1.50;;;1.40;;
17265;SDS011;8749;47.076;15.412;2022-08-19T08:03:33;3.22;;;1.70;;
17265;SDS011;8749;47.076;15.412;2022-08-19T08:06:23;2.00;;;1.52;;
17265;SDS011;8749;47.076;15.412;2022-08-19T08:09:07;2.58;;;1.70;;
17265;SDS011;8749;47.076;15.412;2022-08-19T08:11:43;2.97;;;1.70;;
17265;SDS011;8749;47.076;15.412;2022-08-19T08:14:13;3.13;;;1.90;;
17265;SDS011;8749;47.076;15.412;2022-08-19T08:16:42;3.10;;;2.00;;
17265;SDS011;8749;47.076;15.412;2022-08-19T08:19:10;6.28;;;5.07;;
17265;SDS011;8749;47.076;15.412;2022-08-19T08:21:39;6.65;;;3.45;;
17265;SDS011;8749;47.076;15.412;2022-08-19T08:24:07;5.32;;;2.95;;
17265;SDS011;8749;47.076;15.412;2022-08-19T08:26:34;5.95;;;2.70;;
17265;SDS011;8749;47.076;15.412;2022-08-19T08:29:03;7.45;;;2.65;;
17265;SDS011;8749;47.076;15.412;2022-08-19T08:31:33;4.18;;;2.70;;
17265;SDS011;8749;47.076;15.412;2022-08-19T08:34:00;6.97;;;2.40;;
17265;SDS011;8749;47.076;15.412;2022-08-19T08:36:28;7.90;;;2.80;;
17265;SDS011;8749;47.076;15.412;2022-08-19T08:39:00;3.65;;;2.58;;
17265;SDS011;8749;47.076;15.412;2022-08-19T08:41:30;4.90;;;2.70;;
17265;SDS011;8749;47.076;15.412;2022-08-19T08:44:01;5.05;;;2.10;;
17265;SDS011;8749;47.076;15.412;2022-08-19T08:46:33;2.95;;;1.80;;
17265;SDS011;8749;47.076;15.412;2022-08-19T08:49:06;3.15;;;1.90;;
17265;SDS011;8749;47.076;15.412;2022-08-19T08:51:44;3.15;;;2.05;;
17265;SDS011;8749;47.076;15.412;2022-08-19T08:54:18;3.38;;;2.10;;
17265;SDS011;8749;47.076;15.412;2022-08-19T08:56:47;2.67;;;2.20;;
17265;SDS011;8749;47.076;15.412;2022-08-19T08:59:20;4.07;;;2.10;;
17265;SDS011;8749;47.076;15.412;2022-08-19T09:01:51;7.88;;;4.70;;
17265;SDS011;8749;47.076;15.412;2022-08-19T09:04:18;4.43;;;3.72;;
17265;SDS011;8749;47.076;15.412;2022-08-19T09:06:48;11.43;;;4.88;;
17265;SDS011;8749;47.076;15.412;2022-08-19T09:09:29;5.40;;;3.53;;
17265;SDS011;8749;47.076;15.412;2022-08-19T09:12:02;6.60;;;3.80;;
17265;SDS011;8749;47.076;15.412;2022-08-19T09:14:39;8.73;;;3.92;;
17265;SDS011;8749;47.076;15.412;2022-08-19T09:17:11;8.40;;;3.33;;
17265;SDS011;8749;47.076;15.412;2022-08-19T09:19:46;5.45;;;3.47;;
17265;SDS011;8749;47.076;15.412;2022-08-19T09:22:17;7.32;;;3.70;;
17265;SDS011;8749;47.076;15.412;2022-08-19T09:24:46;6.20;;;3.22;;
17265;SDS011;8749;47.076;15.412;2022-08-19T09:27:13;5.88;;;3.05;;
17265;SDS011;8749;47.076;15.412;2022-08-19T09:29:42;5.00;;;2.50;;
17265;SDS011;8749;47.076;15.412;2022-08-19T09:32:09;5.25;;;2.40;;
17265;SDS011;8749;47.076;15.412;2022-08-19T09:34:35;2.28;;;2.10;;
17265;SDS011;8749;47.076;15.412;2022-08-19T09:37:02;3.65;;;2.45;;
17265;SDS011;8749;47.076;15.412;2022-08-19T09:39:32;6.93;;;2.92;;
17265;SDS011;8749;47.076;15.412;2022-08-19T09:41:58;6.25;;;3.13;;
17265;SDS011;8749;47.076;15.412;2022-08-19T09:44:25;10.48;;;3.22;;
17265;SDS011;8749;47.076;15.412;2022-08-19T09:46:54;7.38;;;3.30;;
17265;SDS011;8749;47.076;15.412;2022-08-19T09:49:21;7.43;;;3.25;;
17265;SDS011;8749;47.076;15.412;2022-08-19T09:51:49;9.15;;;3.15;;
17265;SDS011;8749;47.076;15.412;2022-08-19T09:54:17;4.30;;;3.13;;
17265;SDS011;8749;47.076;15.412;2022-08-19T09:56:44;5.45;;;3.25;;
17265;SDS011;8749;47.076;15.412;2022-08-19T09:59:11;6.13;;;3.45;;
17265;SDS011;8749;47.076;15.412;2022-08-19T10:01:38;6.40;;;3.15;;
17265;SDS011;8749;47.076;15.412;2022-08-19T10:04:06;5.57;;;3.25;;
17265;SDS011;8749;47.076;15.412;2022-08-19T10:06:34;5.97;;;3.58;;
17265;SDS011;8749;47.076;15.412;2022-08-19T10:09:04;6.78;;;3.50;;
17265;SDS011;8749;47.076;15.412;2022-08-19T10:11:32;4.07;;;3.20;;
17265;SDS011;8749;47.076;15.412;2022-08-19T10:14:02;5.50;;;3.05;;
17265;SDS011;8749;47.076;15.412;2022-08-19T10:16:30;7.03;;;5.13;;
17265;SDS011;8749;47.076;15.412;2022-08-19T10:18:58;5.28;;;4.32;;
17265;SDS011;8749;47.076;15.412;2022-08-19T10:21:27;8.57;;;3.67;;
17265;SDS011;8749;47.076;15.412;2022-08-19T10:23:56;7.45;;;4.07;;
17265;SDS011;8749;47.076;15.412;2022-08-19T10:26:26;9.50;;;5.80;;
17265;SDS011;8749;47.076;15.412;2022-08-19T10:28:54;5.95;;;4.53;;
17265;SDS011;8749;47.076;15.412;2022-08-19T10:31:23;7.68;;;4.35;;
17265;SDS011;8749;47.076;15.412;2022-08-19T10:33:52;9.32;;;4.00;;
17265;SDS011;8749;47.076;15.412;2022-08-19T10:36:23;5.95;;;3.58;;
17265;SDS011;8749;47.076;15.412;2022-08-19T10:38:55;5.95;;;3.67;;
17265;SDS011;8749;47.076;15.412;2022-08-19T10:41:25;7.55;;;4.03;;
17265;SDS011;8749;47.076;15.412;2022-08-19T10:43:54;5.28;;;3.40;;
17265;SDS011;8749;47.076;15.412;2022-08-19T10:46:23;5.93;;;3.38;;
17265;SDS011;8749;47.076;15.412;2022-08-19T10:48:51;16.02;;;8.73;;
17265;SDS011;8749;47.076;15.412;2022-08-19T10:51:20;11.50;;;7.22;;
17265;SDS011;8749;47.076;15.412;2022-08-19T10:54:06;11.93;;;5.53;;
17265;SDS011;8749;47.076;15.412;2022-08-19T10:56:34;11.18;;;7.55;;
17265;SDS011;8749;47.076;15.412;2022-08-19T10:59:21;10.50;;;6.60;;
17265;SDS011;8749;47.076;15.412;2022-08-19T11:01:51;15.15;;;9.43;;
17265;SDS011;8749;47.076;15.412;2022-08-19T11:04:18;10.85;;;5.75;;
17265;SDS011;8749;47.076;15.412;2022-08-19T11:06:46;13.07;;;6.97;;
17265;SDS011;8749;47.076;15.412;2022-08-19T11:09:16;11.98;;;5.65;;
17265;SDS011;8749;47.076;15.412;2022-08-19T11:11:44;10.68;;;5.88;;
17265;SDS011;8749;47.076;15.412;2022-08-19T11:14:13;7.50;;;5.82;;
17265;SDS011;8749;47.076;15.412;2022-08-19T11:16:41;8.65;;;4.90;;
17265;SDS011;8749;47.076;15.412;2022-08-19T11:19:09;8.63;;;4.80;;
17265;SDS011;8749;47.076;15.412;2022-08-19T11:21:38;6.82;;;3.65;;
17265;SDS011;8749;47.076;15.412;2022-08-19T11:24:07;15.32;;;9.63;;
17265;SDS011;8749;47.076;15.412;2022-08-19T11:26:37;7.70;;;5.53;;
17265;SDS011;8749;47.076;15.412;2022-08-19T11:29:05;6.05;;;4.18;;
17265;SDS011;8749;47.076;15.412;2022-08-19T11:31:36;8.55;;;4.50;;
17265;SDS011;8749;47.076;15.412;2022-08-19T11:34:05;6.07;;;4.68;;
17265;SDS011;8749;47.076;15.412;2022-08-19T11:36:32;6.35;;;4.25;;
17265;SDS011;8749;47.076;15.412;2022-08-19T11:39:00;5.75;;;3.00;;
17265;SDS011;8749;47.076;15.412;2022-08-19T11:41:29;6.00;;;2.80;;
17265;SDS011;8749;47.076;15.412;2022-08-19T11:43:57;3.95;;;3.00;;
17265;SDS011;8749;47.076;15.412;2022-08-19T11:46:25;4.43;;;2.85;;
17265;SDS011;8749;47.076;15.412;2022-08-19T11:48:54;4.82;;;3.20;;
17265;SDS011;8749;47.076;15.412;2022-08-19T11:51:22;6.70;;;3.33;;
17265;SDS011;8749;47.076;15.412;2022-08-19T11:53:50;4.78;;;3.30;;
17265;SDS011;8749;47.076;15.412;2022-08-19T11:56:18;8.10;;;3.97;;
17265;SDS011;8749;47.076;15.412;2022-08-19T11:58:46;7.32;;;5.22;;
17265;SDS011;8749;47.076;15.412;2022-08-19T12:01:16;8.40;;;4.40;;
17265;SDS011;8749;47.076;15.412;2022-08-19T12:03:45;9.73;;;4.82;;
17265;SDS011;8749;47.076;15.412;2022-08-19T12:06:15;6.80;;;4.13;;
17265;SDS011;8749;47.076;15.412;2022-08-19T12:08:44;8.20;;;4.50;;
17265;SDS011;8749;47.076;15.412;2022-08-19T12:11:12;7.03;;;4.57;;
17265;SDS011;8749;47.076;15.412;2022-08-19T12:13:40;8.13;;;3.47;;
17265;SDS011;8749;47.076;15.412;2022-08-19T12:16:09;5.22;;;2.70;;
17265;SDS011;8749;47.076;15.412;2022-08-19T12:18:39;8.80;;;2.95;;
17265;SDS011;8749;47.076;15.412;2022-08-19T12:21:08;8.85;;;2.90;;
17265;SDS011;8749;47.076;15.412;2022-08-19T12:23:38;7.03;;;2.80;;
17265;SDS011;8749;47.076;15.412;2022-08-19T12:26:05;3.17;;;2.35;;
17265;SDS011;8749;47.076;15.412;2022-08-19T12:28:33;5.47;;;2.50;;
17265;SDS011;8749;47.076;15.412;2022-08-19T12:31:00;6.47;;;2.30;;
17265;SDS011;8749;47.076;15.412;2022-08-19T12:33:27;4.43;;;2.50;;
17265;SDS011;8749;47.076;15.412;2022-08-19T12:35:59;4.80;;;2.20;;
17265;SDS011;8749;47.076;15.412;2022-08-19T12:38:28;5.82;;;2.22;;
17265;SDS011;8749;47.076;15.412;2022-08-19T12:40:55;4.68;;;1.98;;
17265;SDS011;8749;47.076;15.412;2022-08-19T12:43:22;2.83;;;2.53;;
17265;SDS011;8749;47.076;15.412;2022-08-19T12:45:49;4.95;;;2.15;;
17265;SDS011;8749;47.076;15.412;2022-08-19T12:48:16;5.57;;;2.30;;
17265;SDS011;8749;47.076;15.412;2022-08-19T12:50:44;6.07;;;2.13;;
17265;SDS011;8749;47.076;15.412;2022-08-19T12:53:13;7.28;;;2.47;;
17265;SDS011;8749;47.076;15.412;2022-08-19T12:55:41;8.25;;;2.35;;
17265;SDS011;8749;47.076;15.412;2022-08-19T12:58:08;4.80;;;2.30;;
17265;SDS011;8749;47.076;15.412;2022-08-19T13:00:35;4.80;;;2.33;;
17265;SDS011;8749;47.076;15.412;2022-08-19T13:03:02;4.75;;;2.10;;
17265;SDS011;8749;47.076;15.412;2022-08-19T13:05:30;4.90;;;2.20;;
17265;SDS011;8749;47.076;15.412;2022-08-19T13:07:59;5.88;;;2.25;;
17265;SDS011;8749;47.076;15.412;2022-08-19T13:10:28;5.60;;;2.38;;
17265;SDS011;8749;47.076;15.412;2022-08-19T13:13:00;5.47;;;2.50;;
17265;SDS011;8749;47.076;15.412;2022-08-19T13:15:32;6.45;;;2.42;;
17265;SDS011;8749;47.076;15.412;2022-08-19T13:18:00;5.28;;;2.60;;
17265;SDS011;8749;47.076;15.412;2022-08-19T13:20:27;5.43;;;2.47;;
17265;SDS011;8749;47.076;15.412;2022-08-19T13:22:54;4.28;;;2.45;;
17265;SDS011;8749;47.076;15.412;2022-08-19T13:25:22;7.78;;;2.70;;
17265;SDS011;8749;47.076;15.412;2022-08-19T13:27:51;6.38;;;2.40;;
17265;SDS011;8749;47.076;15.412;2022-08-19T13:30:20;11.27;;;3.13;;
17265;SDS011;8749;47.076;15.412;2022-08-19T13:33:04;8.20;;;2.50;;
17265;SDS011;8749;47.076;15.412;2022-08-19T13:35:40;8.68;;;2.50;;
17265;SDS011;8749;47.076;15.412;2022-08-19T13:38:08;7.47;;;2.42;;
17265;SDS011;8749;47.076;15.412;2022-08-19T13:40:36;5.55;;;2.33;;
17265;SDS011;8749;47.076;15.412;2022-08-19T13:43:04;9.70;;;4.80;;
17265;SDS011;8749;47.076;15.412;2022-08-19T13:45:32;5.95;;;2.95;;
17265;SDS011;8749;47.076;15.412;2022-08-19T13:48:00;4.82;;;2.30;;
17265;SDS011;8749;47.076;15.412;2022-08-19T13:50:31;6.68;;;2.50;;
17265;SDS011;8749;47.076;15.412;2022-08-19T13:52:59;3.08;;;2.30;;
17265;SDS011;8749;47.076;15.412;2022-08-19T13:55:28;5.13;;;2.40;;
17265;SDS011;8749;47.076;15.412;2022-08-19T13:57:56;8.68;;;2.60;;
17265;SDS011;8749;47.076;15.412;2022-08-19T14:00:27;4.93;;;2.25;;
17265;SDS011;8749;47.076;15.412;2022-08-19T14:02:55;9.07;;;2.70;;
17265;SDS011;8749;47.076;15.412;2022-08-19T14:05:24;5.18;;;2.20;;
17265;SDS011;8749;47.076;15.412;2022-08-19T14:07:53;6.43;;;2.50;;
17265;SDS011;8749;47.076;15.412;2022-08-19T14:10:20;11.18;;;3.70;;
17265;SDS011;8749;47.076;15.412;2022-08-19T14:12:48;4.50;;;2.55;;
17265;SDS011;8749;47.076;15.412;2022-08-19T14:15:18;10.23;;;2.95;;
17265;SDS011;8749;47.076;15.412;2022-08-19T14:17:46;3.47;;;2.60;;
17265;SDS011;8749;47.076;15.412;2022-08-19T14:20:14;11.25;;;2.83;;
17265;SDS011;8749;47.076;15.412;2022-08-19T14:22:41;9.60;;;4.25;;
17265;SDS011;8749;47.076;15.412;2022-08-19T14:25:10;7.85;;;3.25;;
17265;SDS011;8749;47.076;15.412;2022-08-19T14:27:40;5.38;;;4.20;;
17265;SDS011;8749;47.076;15.412;2022-08-19T14:30:08;5.38;;;3.30;;
17265;SDS011;8749;47.076;15.412;2022-08-19T14:32:36;3.80;;;2.40;;
17265;SDS011;8749;47.076;15.412;2022-08-19T14:35:05;4.28;;;2.45;;
17265;SDS011;8749;47.076;15.412;2022-08-19T14:37:33;5.78;;;2.65;;
17265;SDS011;8749;47.076;15.412;2022-08-19T14:40:00;8.98;;;2.80;;
17265;SDS011;8749;47.076;15.412;2022-08-19T14:42:27;6.28;;;2.33;;
17265;SDS011;8749;47.076;15.412;2022-08-19T14:44:56;8.85;;;2.63;;
17265;SDS011;8749;47.076;15.412;2022-08-19T14:47:24;4.85;;;2.60;;
17265;SDS011;8749;47.076;15.412;2022-08-19T14:49:52;4.50;;;3.05;;
17265;SDS011;8749;47.076;15.412;2022-08-19T14:52:20;5.20;;;2.50;;
17265;SDS011;8749;47.076;15.412;2022-08-19T14:54:47;5.32;;;2.80;;